createdAt,value
2018-05-04T00:00:53.287Z,79.75
2018-05-04T00:01:53.221Z,79.85
2018-05-04T00:03:53.245Z,79.47
2018-05-04T00:04:54.156Z,79.47
2018-05-04T00:06:57.321Z,79.47
2018-05-04T00:07:57.292Z,79.28
2018-05-04T00:09:58.609Z,79.66
2018-05-04T00:10:58.085Z,79.47
2018-05-04T00:12:58.691Z,80.04
2018-05-04T00:13:58.008Z,80.04
2018-05-04T00:15:56.015Z,80.04
2018-05-04T00:16:56.007Z,80.61
2018-05-04T00:18:56.456Z,80.00
2018-05-04T00:19:57.841Z,80.52
2018-05-04T00:21:56.895Z,80.19
2018-05-04T00:22:57.785Z,80.47
2018-05-04T00:24:58.239Z,80.10
2018-05-04T00:25:57.164Z,80.76
2018-05-04T00:27:58.280Z,80.76
2018-05-04T00:28:57.679Z,80.90
2018-05-04T00:30:58.082Z,81.05
2018-05-04T00:31:58.679Z,80.29
2018-05-04T00:33:59.584Z,81.05
2018-05-04T00:35:00.056Z,80.76
2018-05-04T00:36:59.799Z,80.57
2018-05-04T00:37:59.519Z,81.43
2018-05-04T00:40:00.604Z,80.47
2018-05-04T00:40:59.446Z,80.66
2018-05-04T00:43:00.498Z,80.76
2018-05-04T00:44:00.994Z,80.76
2018-05-04T00:46:00.882Z,81.71
2018-05-04T00:47:00.268Z,81.43
2018-05-04T00:49:00.877Z,81.43
2018-05-04T00:50:00.765Z,81.24
2018-05-04T00:52:01.353Z,81.43
2018-05-04T00:53:01.647Z,81.71
2018-05-04T00:55:02.612Z,82.28
2018-05-04T00:56:01.583Z,81.90
2018-05-04T00:58:03.140Z,82.67
2018-05-04T00:59:02.109Z,82.00
2018-05-04T01:01:02.623Z,81.62
2018-05-04T01:02:18.397Z,81.81
2018-05-04T01:04:19.047Z,81.62
2018-05-04T01:05:17.660Z,81.71
2018-05-04T01:07:03.403Z,81.62
2018-05-04T01:08:19.003Z,81.71
2018-05-04T01:10:03.877Z,81.71
2018-05-04T01:11:03.772Z,81.52
2018-05-04T01:13:04.321Z,81.71
2018-05-04T01:14:04.269Z,81.62
2018-05-04T01:16:05.713Z,81.71
2018-05-04T01:17:05.193Z,81.81
2018-05-04T01:19:05.714Z,81.81
2018-05-04T01:20:05.101Z,81.81
2018-05-04T01:22:06.133Z,82.09
2018-05-04T01:23:05.559Z,82.09
2018-05-04T01:25:07.042Z,82.09
2018-05-04T01:26:06.951Z,82.28
2018-05-04T01:28:06.978Z,82.00
2018-05-04T01:29:07.963Z,82.38
2018-05-04T01:31:07.436Z,82.71
2018-05-04T01:32:07.015Z,82.67
2018-05-04T01:34:07.397Z,82.48
2018-05-04T01:35:07.855Z,82.57
2018-05-04T01:37:09.926Z,82.43
2018-05-04T01:38:07.837Z,82.53
2018-05-04T01:40:08.294Z,82.34
2018-05-04T01:41:08.264Z,82.81
2018-05-04T01:43:09.159Z,82.62
2018-05-04T01:44:08.669Z,82.62
2018-05-04T01:46:10.165Z,82.43
2018-05-04T01:47:09.167Z,82.91
2018-05-04T01:49:09.574Z,82.91
2018-05-04T01:50:09.463Z,83.00
2018-05-04T01:52:10.429Z,83.10
2018-05-04T01:53:09.944Z,82.91
2018-05-04T01:55:10.440Z,83.19
2018-05-04T01:56:10.351Z,82.81
2018-05-04T01:58:11.387Z,83.19
2018-05-04T01:59:10.824Z,83.76
2018-05-04T02:01:11.293Z,82.43
2018-05-04T02:02:11.264Z,82.91
2018-05-04T02:04:12.235Z,83.19
2018-05-04T02:05:12.676Z,83.10
2018-05-04T02:07:13.282Z,83.19
2018-05-04T02:08:13.226Z,83.29
2018-05-04T02:10:13.130Z,83.19
2018-05-04T02:11:14.145Z,82.91
2018-05-04T02:13:14.127Z,83.39
2018-05-04T02:14:13.099Z,82.87
2018-05-04T02:16:13.613Z,82.77
2018-05-04T02:17:13.553Z,82.96
2018-05-04T02:19:12.060Z,83.44
2018-05-04T02:20:12.481Z,83.34
2018-05-04T02:22:15.681Z,83.53
2018-05-04T02:23:15.649Z,83.62
2018-05-04T02:25:16.343Z,83.34
2018-05-04T02:26:16.171Z,83.44
2018-05-04T02:28:16.677Z,83.82
2018-05-04T02:29:16.575Z,84.01
2018-05-04T02:31:18.509Z,83.44
2018-05-04T02:32:17.447Z,83.62
2018-05-04T02:34:18.913Z,83.82
2018-05-04T02:35:17.871Z,84.39
2018-05-04T02:37:17.940Z,83.82
2018-05-04T02:38:18.279Z,83.91
2018-05-04T02:40:18.435Z,84.10
2018-05-04T02:41:19.820Z,84.10
2018-05-04T02:43:19.802Z,83.91
2018-05-04T02:44:19.705Z,84.10
2018-05-04T02:46:20.120Z,84.10
2018-05-04T02:47:20.066Z,84.10
2018-05-04T02:49:21.390Z,84.10
2018-05-04T02:50:20.518Z,84.20
2018-05-04T02:52:20.955Z,84.01
2018-05-04T02:53:21.404Z,84.10
2018-05-04T02:55:26.415Z,84.20
2018-05-04T02:56:24.893Z,84.20
2018-05-04T02:58:25.454Z,84.01
2018-05-04T02:59:25.886Z,84.01
2018-05-04T03:01:25.821Z,84.20
2018-05-04T03:02:25.816Z,84.10
2018-05-04T03:04:26.296Z,84.01
2018-05-04T03:05:26.246Z,84.20
2018-05-04T03:07:26.871Z,83.91
2018-05-04T03:08:26.687Z,84.20
2018-05-04T03:10:27.625Z,84.29
2018-05-04T03:11:27.670Z,83.62
2018-05-04T03:13:27.715Z,83.62
2018-05-04T03:14:27.589Z,83.91
2018-05-04T03:16:28.241Z,83.91
2018-05-04T03:17:27.961Z,84.20
2018-05-04T03:19:28.877Z,84.29
2018-05-04T03:20:29.848Z,83.91
2018-05-04T03:22:28.977Z,84.29
2018-05-04T03:23:28.943Z,83.82
2018-05-04T03:25:30.331Z,83.82
2018-05-04T03:26:29.792Z,83.82
2018-05-04T03:28:29.696Z,84.01
2018-05-04T03:29:29.638Z,84.29
2018-05-04T03:31:31.229Z,84.10
2018-05-04T03:32:30.173Z,84.01
2018-05-04T03:34:32.122Z,84.01
2018-05-04T03:35:30.526Z,83.91
2018-05-04T03:37:31.126Z,84.10
2018-05-04T03:38:31.114Z,84.01
2018-05-04T03:40:32.480Z,84.01
2018-05-04T03:41:31.405Z,84.10
2018-05-04T03:43:32.548Z,84.10
2018-05-04T03:44:32.412Z,84.58
2018-05-04T03:46:32.423Z,84.67
2018-05-04T03:47:32.375Z,84.67
2018-05-04T03:49:32.863Z,84.77
2018-05-04T03:50:32.804Z,84.77
2018-05-04T03:52:34.697Z,84.39
2018-05-04T03:53:33.715Z,84.39
2018-05-04T03:55:34.179Z,84.29
2018-05-04T03:56:34.090Z,84.58
2018-05-04T03:58:35.064Z,84.58
2018-05-04T03:59:34.184Z,84.67
2018-05-04T04:01:35.521Z,84.58
2018-05-04T04:02:34.540Z,84.48
2018-05-04T04:04:35.419Z,84.58
2018-05-04T04:05:35.418Z,84.58
2018-05-04T04:07:35.473Z,84.67
2018-05-04T04:08:35.895Z,84.34
2018-05-04T04:10:36.151Z,84.44
2018-05-04T04:11:35.804Z,84.34
2018-05-04T04:13:37.784Z,83.87
2018-05-04T04:14:37.681Z,84.25
2018-05-04T04:16:40.264Z,84.53
2018-05-04T04:17:38.659Z,84.67
2018-05-04T04:19:39.374Z,84.44
2018-05-04T04:20:39.562Z,84.48
2018-05-04T04:22:41.175Z,84.58
2018-05-04T04:23:40.664Z,84.58
2018-05-04T04:25:41.087Z,84.01
2018-05-04T04:26:41.039Z,83.91
2018-05-04T04:28:41.493Z,84.29
2018-05-04T04:29:41.971Z,84.01
2018-05-04T04:31:43.329Z,84.58
2018-05-04T04:32:43.286Z,84.01
2018-05-04T04:34:43.556Z,84.39
2018-05-04T04:35:43.680Z,84.39
2018-05-04T04:37:43.601Z,84.20
2018-05-04T04:38:43.674Z,84.29
2018-05-04T04:40:46.045Z,83.91
2018-05-04T04:41:46.091Z,84.48
2018-05-04T04:43:46.236Z,84.01
2018-05-04T04:44:46.573Z,84.29
2018-05-04T04:46:47.131Z,84.01
2018-05-04T04:47:46.086Z,84.39
2018-05-04T04:49:46.994Z,84.39
2018-05-04T04:50:46.977Z,84.67
2018-05-04T04:52:47.033Z,84.62
2018-05-04T04:53:47.577Z,84.72
2018-05-04T04:55:47.869Z,84.33
2018-05-04T04:56:47.872Z,83.95
2018-05-04T04:58:51.565Z,83.81
2018-05-04T04:59:51.788Z,83.42
2018-05-04T05:01:52.902Z,83.42
2018-05-04T05:02:52.204Z,83.42
2018-05-04T05:04:52.631Z,82.95
2018-05-04T05:05:52.271Z,83.42
2018-05-04T05:07:53.597Z,83.04
2018-05-04T05:08:52.610Z,83.23
2018-05-04T05:10:53.659Z,82.61
2018-05-04T05:11:53.038Z,83.09
2018-05-04T05:13:57.033Z,82.51
2018-05-04T05:14:53.951Z,82.80
2018-05-04T05:16:54.928Z,82.23
2018-05-04T05:17:53.856Z,82.32
2018-05-04T05:19:54.782Z,81.76
2018-05-04T05:20:54.796Z,82.08
2018-05-04T05:22:55.392Z,81.79
2018-05-04T05:23:54.725Z,80.46
2018-05-04T05:25:55.251Z,81.13
2018-05-04T05:26:56.691Z,81.13
2018-05-04T05:28:57.189Z,81.13
2018-05-04T05:29:55.557Z,80.55
2018-05-04T05:31:57.938Z,81.07
2018-05-04T05:32:56.057Z,81.07
2018-05-04T05:34:56.515Z,80.02
2018-05-04T05:35:56.443Z,79.93
2018-05-04T05:37:58.094Z,79.55
2018-05-04T05:38:57.476Z,79.49
2018-05-04T05:40:58.440Z,79.36
2018-05-04T05:41:58.137Z,79.74
2018-05-04T05:43:59.211Z,79.30
2018-05-04T05:44:58.636Z,79.11
2018-05-04T05:46:59.237Z,78.73
2018-05-04T05:47:59.050Z,79.30
2018-05-04T05:50:06.451Z,78.64
2018-05-04T05:51:05.458Z,77.97
2018-05-04T05:53:04.003Z,77.82
2018-05-04T05:54:04.946Z,77.44
2018-05-04T05:56:04.487Z,77.34
2018-05-04T05:57:04.901Z,77.44
2018-05-04T05:59:06.825Z,76.57
2018-05-04T06:00:05.372Z,77.28
2018-05-04T06:02:05.938Z,76.04
2018-05-04T06:03:05.326Z,75.76
2018-05-04T06:05:06.886Z,76.42
2018-05-04T06:06:06.695Z,76.33
2018-05-04T06:08:09.568Z,76.52
2018-05-04T06:09:06.984Z,76.14
2018-05-04T06:11:07.653Z,76.14
2018-05-04T06:12:07.628Z,76.42
2018-05-04T06:14:08.980Z,75.95
2018-05-04T06:15:08.469Z,76.23
2018-05-04T06:17:13.427Z,76.14
2018-05-04T06:18:13.481Z,75.85
2018-05-04T06:20:13.960Z,75.28
2018-05-04T06:21:13.877Z,74.42
2018-05-04T06:23:16.229Z,76.14
2018-05-04T06:24:14.314Z,75.95
2018-05-04T06:26:14.787Z,76.33
2018-05-04T06:27:14.830Z,76.62
2018-05-04T06:29:15.219Z,75.51
2018-05-04T06:30:16.680Z,75.32
2018-05-04T06:32:15.813Z,75.51
2018-05-04T06:33:16.195Z,75.60
2018-05-04T06:35:17.719Z,75.70
2018-05-04T06:36:17.203Z,75.42
2018-05-04T06:38:18.075Z,75.42
2018-05-04T06:39:18.051Z,75.32
2018-05-04T06:41:18.468Z,75.22
2018-05-04T06:42:18.489Z,75.07
2018-05-04T06:44:18.467Z,75.07
2018-05-04T06:45:18.405Z,75.45
2018-05-04T06:47:17.834Z,75.64
2018-05-04T06:48:17.346Z,75.16
2018-05-04T06:50:16.987Z,75.64
2018-05-04T06:51:16.948Z,74.59
2018-05-04T06:53:18.034Z,75.16
2018-05-04T06:54:17.387Z,75.35
2018-05-04T06:56:16.372Z,75.54
2018-05-04T06:57:15.496Z,75.26
2018-05-04T06:59:15.950Z,74.40
2018-05-04T07:00:16.438Z,74.59
2018-05-04T07:02:18.379Z,74.88
2018-05-04T07:03:17.416Z,74.98
2018-05-04T07:05:18.803Z,74.11
2018-05-04T07:06:18.727Z,73.92
2018-05-04T07:08:19.791Z,74.02
2018-05-04T07:09:18.239Z,73.77
2018-05-04T07:11:20.737Z,72.72
2018-05-04T07:12:19.728Z,71.86
2018-05-04T07:14:22.167Z,72.14
2018-05-04T07:15:20.172Z,71.47
2018-05-04T07:17:21.619Z,71.32
2018-05-04T07:18:22.137Z,70.84
2018-05-04T07:20:19.734Z,67.49
2018-05-04T07:21:19.698Z,67.21
2018-05-04T07:23:20.195Z,67.69
2018-05-04T07:24:20.152Z,68.16
2018-05-04T07:26:20.674Z,65.39
2018-05-04T07:27:20.580Z,64.25
2018-05-04T07:29:22.612Z,64.72
2018-05-04T07:30:22.076Z,64.82
2018-05-04T07:32:22.565Z,62.55
2018-05-04T07:33:37.156Z,61.69
2018-05-04T07:35:18.975Z,61.69
2018-05-04T07:36:19.039Z,61.60
2018-05-04T07:38:19.461Z,61.22
2018-05-04T07:39:18.960Z,60.38
2018-05-04T07:41:19.907Z,59.91
2018-05-04T07:42:19.369Z,58.76
2018-05-04T07:44:19.803Z,54.93
2018-05-04T07:45:19.791Z,54.36
2018-05-04T07:47:19.251Z,54.26
2018-05-04T07:48:19.740Z,55.88
2018-05-04T07:50:18.828Z,55.22
2018-05-04T07:51:18.339Z,54.00
2018-05-04T07:53:18.810Z,51.79
2018-05-04T07:54:18.881Z,51.13
2018-05-04T07:56:19.866Z,50.46
2018-05-04T07:57:19.244Z,50.46
2018-05-04T07:59:19.690Z,49.60
2018-05-04T08:00:19.656Z,49.21
2018-05-04T08:02:17.631Z,49.60
2018-05-04T08:03:17.657Z,49.21
2018-05-04T08:05:14.070Z,49.50
2018-05-04T08:06:14.551Z,48.73
2018-05-04T08:08:14.059Z,48.75
2018-05-04T08:09:15.059Z,48.85
2018-05-04T08:11:15.510Z,48.66
2018-05-04T08:12:14.561Z,48.95
2018-05-04T08:14:14.972Z,47.99
2018-05-04T08:15:14.972Z,47.71
2018-05-04T08:17:13.427Z,47.03
2018-05-04T08:18:14.442Z,46.75
2018-05-04T08:20:13.897Z,46.36
2018-05-04T08:21:14.455Z,46.55
2018-05-04T08:23:11.362Z,46.55
2018-05-04T08:24:11.894Z,46.36
2018-05-04T08:26:09.419Z,44.64
2018-05-04T08:27:09.412Z,43.87
2018-05-04T08:29:10.376Z,44.73
2018-05-04T08:30:09.858Z,44.76
2018-05-04T08:32:11.820Z,44.76
2018-05-04T08:33:10.509Z,44.37
2018-05-04T08:35:11.475Z,44.76
2018-05-04T08:36:10.969Z,44.56
2018-05-04T08:38:08.919Z,43.99
2018-05-04T08:39:09.938Z,44.18
2018-05-04T08:41:07.869Z,43.99
2018-05-04T08:42:07.903Z,43.99
2018-05-04T08:44:05.522Z,44.85
2018-05-04T08:45:05.546Z,44.85
2018-05-04T08:47:02.948Z,44.66
2018-05-04T08:48:02.892Z,44.47
2018-05-04T08:49:59.855Z,44.37
2018-05-04T08:50:58.876Z,44.68
2018-05-04T08:52:57.808Z,43.91
2018-05-04T08:53:57.310Z,44.01
2018-05-04T08:55:57.301Z,44.59
2018-05-04T08:56:57.239Z,44.78
2018-05-04T08:58:53.241Z,43.44
2018-05-04T08:59:54.705Z,42.00
2018-05-04T09:01:54.696Z,43.24
2018-05-04T09:02:54.663Z,43.53
2018-05-04T09:04:50.711Z,43.91
2018-05-04T09:05:50.780Z,43.70
2018-05-04T09:07:48.613Z,43.51
2018-05-04T09:08:48.615Z,44.68
2018-05-04T09:10:46.575Z,42.57
2018-05-04T09:11:46.554Z,42.77
2018-05-04T09:13:44.516Z,42.29
2018-05-04T09:14:44.535Z,42.47
2018-05-04T09:16:45.471Z,42.10
2018-05-04T09:17:46.996Z,42.29
2018-05-04T09:19:47.022Z,42.30
2018-05-04T09:20:45.487Z,42.69
2018-05-04T09:22:44.399Z,41.25
2018-05-04T09:23:43.411Z,41.44
2018-05-04T09:25:41.903Z,41.25
2018-05-04T09:26:41.894Z,41.63
2018-05-04T09:28:37.812Z,40.58
2018-05-04T09:29:37.324Z,41.16
2018-05-04T09:31:35.450Z,41.44
2018-05-04T09:32:35.243Z,41.23
2018-05-04T09:34:35.714Z,41.61
2018-05-04T09:35:35.731Z,41.33
2018-05-04T09:37:36.194Z,41.61
2018-05-04T09:38:36.183Z,41.52
2018-05-04T09:40:32.640Z,41.61
2018-05-04T09:41:32.155Z,42.21
2018-05-04T09:43:33.553Z,41.44
2018-05-04T09:44:32.592Z,41.35
2018-05-04T09:46:30.792Z,40.67
2018-05-04T09:47:30.739Z,40.60
2018-05-04T09:49:30.644Z,40.99
2018-05-04T09:50:28.790Z,41.17
2018-05-04T09:52:27.240Z,38.78
2018-05-04T09:53:26.786Z,38.68
2018-05-04T09:55:25.709Z,39.06
2018-05-04T09:56:24.721Z,39.35
2018-05-04T09:58:27.162Z,40.41
2018-05-04T09:59:25.197Z,40.41
2018-05-04T10:01:25.650Z,41.67
2018-05-04T10:02:26.217Z,40.43
2018-05-04T10:04:26.267Z,39.16
2018-05-04T10:05:26.329Z,39.37
2018-05-04T10:07:27.773Z,39.28
2018-05-04T10:08:27.761Z,39.47
2018-05-04T10:10:28.235Z,38.02
2018-05-04T10:11:29.229Z,38.41
2018-05-04T10:13:26.776Z,38.60
2018-05-04T10:14:26.211Z,38.51
2018-05-04T10:16:26.671Z,38.81
2018-05-04T10:17:26.658Z,38.62
2018-05-04T10:19:28.107Z,38.04
2018-05-04T10:20:28.067Z,38.51
2018-05-04T10:22:25.046Z,37.64
2018-05-04T10:23:25.068Z,37.74
2018-05-04T10:25:24.006Z,38.22
2018-05-04T10:26:24.025Z,38.51
2018-05-04T10:28:22.474Z,38.99
2018-05-04T10:29:20.958Z,40.05
2018-05-04T10:31:19.868Z,40.33
2018-05-04T10:32:18.914Z,40.52
2018-05-04T10:34:15.897Z,40.72
2018-05-04T10:35:15.939Z,39.47
2018-05-04T10:37:16.389Z,40.55
2018-05-04T10:38:16.402Z,40.64
2018-05-04T10:40:16.816Z,39.58
2018-05-04T10:41:16.833Z,39.28
2018-05-04T10:43:18.254Z,40.06
2018-05-04T10:44:17.318Z,39.97
2018-05-04T10:46:18.244Z,39.97
2018-05-04T10:47:17.676Z,39.97
2018-05-04T10:49:19.700Z,39.20
2018-05-04T10:50:19.239Z,40.06
2018-05-04T10:52:20.631Z,40.45
2018-05-04T10:53:20.634Z,40.35
2018-05-04T10:55:19.598Z,38.81
2018-05-04T10:56:17.770Z,39.97
2018-05-04T10:58:16.244Z,39.49
2018-05-04T10:59:16.712Z,39.47
2018-05-04T11:01:11.653Z,40.55
2018-05-04T11:02:11.642Z,40.45
2018-05-04T11:04:08.645Z,39.49
2018-05-04T11:05:07.617Z,39.39
2018-05-04T11:07:08.621Z,39.68
2018-05-04T11:08:08.573Z,39.87
2018-05-04T11:10:08.525Z,39.12
2018-05-04T11:11:08.526Z,39.51
2018-05-04T11:13:10.509Z,39.03
2018-05-04T11:14:10.499Z,39.03
2018-05-04T11:16:10.633Z,37.51
2018-05-04T11:17:10.171Z,37.32
2018-05-04T11:19:08.094Z,36.54
2018-05-04T11:20:08.091Z,36.64
2018-05-04T11:22:13.537Z,37.97
2018-05-04T11:23:13.534Z,37.89
2018-05-04T11:25:11.505Z,38.95
2018-05-04T11:26:11.566Z,38.56
2018-05-04T11:28:09.629Z,37.68
2018-05-04T11:29:09.635Z,37.41
2018-05-04T11:31:11.061Z,37.99
2018-05-04T11:32:10.066Z,37.60
2018-05-04T11:34:10.551Z,37.32
2018-05-04T11:35:10.569Z,37.12
2018-05-04T11:37:09.025Z,37.32
2018-05-04T11:38:08.521Z,37.32
2018-05-04T11:40:07.541Z,36.93
2018-05-04T11:41:06.921Z,37.32
2018-05-04T11:43:04.885Z,36.54
2018-05-04T11:44:04.938Z,36.35
2018-05-04T11:46:06.362Z,37.22
2018-05-04T11:47:05.947Z,36.64
2018-05-04T11:49:06.314Z,36.54
2018-05-04T11:50:04.297Z,37.22
2018-05-04T11:52:00.271Z,36.27
2018-05-04T11:53:00.248Z,36.35
2018-05-04T11:54:57.202Z,36.54
2018-05-04T11:55:56.716Z,35.10
2018-05-04T11:57:54.664Z,34.89
2018-05-04T11:58:56.132Z,35.39
2018-05-04T12:00:50.096Z,35.58
2018-05-04T12:01:50.617Z,35.02
2018-05-04T12:03:48.615Z,35.41
2018-05-04T12:04:48.118Z,36.37
2018-05-04T12:06:49.524Z,35.31
2018-05-04T12:07:48.517Z,35.31
2018-05-04T12:09:46.518Z,35.00
2018-05-04T12:10:48.015Z,35.10
2018-05-04T12:12:44.961Z,35.22
2018-05-04T12:13:45.370Z,35.50
2018-05-04T12:15:45.048Z,35.50
2018-05-04T12:16:43.139Z,35.99
2018-05-04T12:18:40.953Z,34.83
2018-05-04T12:19:40.959Z,35.22
2018-05-04T12:21:39.914Z,34.64
2018-05-04T12:22:38.449Z,32.90
2018-05-04T12:24:37.893Z,32.82
2018-05-04T12:25:36.572Z,33.12
2018-05-04T12:27:35.109Z,33.02
2018-05-04T12:28:34.499Z,32.44
2018-05-04T12:30:35.028Z,33.50
2018-05-04T12:31:35.483Z,33.79
2018-05-04T12:33:32.946Z,33.79
2018-05-04T12:34:32.966Z,33.12
2018-05-04T12:36:31.911Z,33.21
2018-05-04T12:37:30.907Z,33.02
2018-05-04T12:39:32.260Z,34.08
2018-05-04T12:40:31.377Z,34.27
2018-05-04T12:42:30.323Z,32.64
2018-05-04T12:43:29.536Z,33.50
2018-05-04T12:45:26.980Z,32.64
2018-05-04T12:46:26.497Z,32.07
2018-05-04T12:48:21.993Z,32.07
2018-05-04T12:49:21.999Z,32.46
2018-05-04T12:51:20.448Z,31.49
2018-05-04T12:52:20.433Z,30.43
2018-05-04T12:54:18.073Z,31.90
2018-05-04T12:55:18.579Z,31.80
2018-05-04T12:57:16.595Z,30.45
2018-05-04T12:58:16.201Z,30.45
2018-05-04T13:00:13.644Z,31.59
2018-05-04T13:01:15.122Z,31.40
2018-05-04T13:03:12.160Z,30.34
2018-05-04T13:04:12.623Z,30.61
2018-05-04T13:06:10.691Z,31.69
2018-05-04T13:07:10.677Z,31.78
2018-05-04T13:09:08.242Z,31.01
2018-05-04T13:10:07.731Z,31.21
2018-05-04T13:12:05.802Z,31.88
2018-05-04T13:13:05.732Z,31.11
2018-05-04T13:15:01.668Z,31.69
2018-05-04T13:16:01.700Z,31.78
2018-05-04T13:17:58.163Z,31.88
2018-05-04T13:18:58.115Z,31.78
2018-05-04T13:20:53.640Z,32.65
2018-05-04T13:21:53.584Z,33.34
2018-05-04T13:23:51.532Z,33.63
2018-05-04T13:24:51.577Z,33.44
2018-05-04T13:26:51.564Z,32.76
2018-05-04T13:27:50.531Z,32.18
2018-05-04T13:29:48.000Z,31.69
2018-05-04T13:30:47.688Z,32.65
2018-05-04T13:32:43.629Z,32.47
2018-05-04T13:33:44.112Z,32.75
2018-05-04T13:35:41.092Z,32.76
2018-05-04T13:36:41.063Z,32.18
2018-05-04T13:38:42.012Z,33.03
2018-05-04T13:39:42.013Z,33.23
2018-05-04T13:41:42.474Z,33.15
2018-05-04T13:42:42.446Z,33.03
2018-05-04T13:44:39.482Z,33.82
2018-05-04T13:45:39.433Z,32.57
2018-05-04T13:47:36.461Z,32.56
2018-05-04T13:48:35.469Z,33.33
2018-05-04T13:50:36.932Z,33.73
2018-05-04T13:51:35.936Z,34.09
2018-05-04T13:53:34.945Z,34.77
2018-05-04T13:54:35.843Z,35.16
2018-05-04T13:56:33.033Z,36.31
2018-05-04T13:57:31.975Z,36.51
2018-05-04T13:59:30.938Z,36.04
2018-05-04T14:00:30.963Z,36.52
2018-05-04T14:02:28.081Z,35.36
2018-05-04T14:03:28.083Z,35.16
2018-05-04T14:05:26.578Z,36.11
2018-05-04T14:06:26.587Z,35.93
2018-05-04T14:08:24.931Z,35.93
2018-05-04T14:09:23.998Z,35.73
2018-05-04T14:11:22.127Z,36.60
2018-05-04T14:12:22.119Z,36.69
2018-05-04T14:14:20.122Z,36.11
2018-05-04T14:15:22.094Z,35.64
2018-05-04T14:17:19.084Z,36.31
2018-05-04T14:18:19.091Z,36.31
2018-05-04T14:20:16.701Z,36.31
2018-05-04T14:21:16.194Z,36.41
2018-05-04T14:23:15.137Z,36.51
2018-05-04T14:24:14.661Z,36.31
2018-05-04T14:26:12.191Z,36.51
2018-05-04T14:27:13.136Z,36.69
2018-05-04T14:29:10.688Z,37.56
2018-05-04T14:30:10.666Z,36.79
2018-05-04T14:32:06.151Z,37.46
2018-05-04T14:33:06.114Z,36.91
2018-05-04T14:35:02.185Z,37.01
2018-05-04T14:36:02.093Z,36.61
2018-05-04T14:37:58.082Z,36.61
2018-05-04T14:38:58.060Z,36.61
2018-05-04T14:40:56.044Z,36.60
2018-05-04T14:41:56.513Z,37.08
2018-05-04T14:43:56.491Z,37.08
2018-05-04T14:44:56.600Z,37.48
2018-05-04T14:46:55.441Z,36.43
2018-05-04T14:47:55.425Z,36.43
2018-05-04T14:49:50.420Z,36.61
2018-05-04T14:50:50.461Z,36.23
2018-05-04T14:52:46.331Z,36.13
2018-05-04T14:53:46.361Z,36.43
2018-05-04T14:55:42.343Z,36.04
2018-05-04T14:56:42.310Z,36.43
2018-05-04T14:58:40.339Z,36.43
2018-05-04T14:59:41.284Z,36.52
2018-05-04T15:01:39.222Z,36.79
2018-05-04T15:02:39.147Z,36.81
2018-05-04T15:04:37.376Z,36.89
2018-05-04T15:05:36.806Z,37.27
2018-05-04T15:07:32.286Z,37.29
2018-05-04T15:08:32.291Z,36.43
2018-05-04T15:10:32.256Z,36.31
2018-05-04T15:11:30.235Z,36.81
2018-05-04T15:13:29.704Z,37.10
2018-05-04T15:14:28.209Z,36.71
2018-05-04T15:16:27.189Z,36.91
2018-05-04T15:17:26.657Z,36.61
2018-05-04T15:19:24.599Z,36.52
2018-05-04T15:20:24.118Z,36.61
2018-05-04T15:22:22.201Z,37.39
2018-05-04T15:23:22.205Z,36.61
2018-05-04T15:25:20.186Z,37.39
2018-05-04T15:26:20.694Z,37.10
2018-05-04T15:28:19.140Z,36.43
2018-05-04T15:29:18.598Z,36.52
2018-05-04T15:31:16.191Z,36.41
2018-05-04T15:32:16.198Z,37.27
2018-05-04T15:34:14.699Z,36.91
2018-05-04T15:35:14.680Z,36.33
2018-05-04T15:37:12.247Z,37.18
2018-05-04T15:38:13.044Z,37.29
2018-05-04T15:40:08.253Z,36.61
2018-05-04T15:41:08.218Z,36.52
2018-05-04T15:43:04.225Z,36.11
2018-05-04T15:44:05.199Z,36.21
2018-05-04T15:46:02.780Z,36.31
2018-05-04T15:47:02.173Z,36.41
2018-05-04T15:49:01.637Z,37.08
2018-05-04T15:50:00.285Z,36.79
2018-05-04T15:51:58.777Z,36.51
2018-05-04T15:52:58.274Z,36.69
2018-05-04T15:54:54.246Z,36.60
2018-05-04T15:55:54.198Z,36.51
2018-05-04T15:57:53.694Z,36.41
2018-05-04T15:58:52.173Z,35.93
2018-05-04T16:00:51.138Z,35.54
2018-05-04T16:01:50.656Z,36.02
2018-05-04T16:03:49.096Z,36.11
2018-05-04T16:04:48.092Z,36.51
2018-05-04T16:06:47.587Z,36.89
2018-05-04T16:07:46.211Z,36.41
2018-05-04T16:09:43.181Z,35.54
2018-05-04T16:10:42.672Z,35.83
2018-05-04T16:12:38.116Z,35.44
2018-05-04T16:13:38.151Z,35.35
2018-05-04T16:15:36.132Z,35.83
2018-05-04T16:16:36.030Z,35.83
2018-05-04T16:18:34.032Z,35.44
2018-05-04T16:19:34.531Z,35.42
2018-05-04T16:21:33.005Z,35.71
2018-05-04T16:22:32.088Z,35.81
2018-05-04T16:24:30.094Z,35.71
2018-05-04T16:25:30.054Z,36.49
2018-05-04T16:27:29.517Z,36.10
2018-05-04T16:28:28.944Z,35.81
2018-05-04T16:30:24.500Z,36.41
2018-05-04T16:31:23.986Z,36.02
2018-05-04T16:33:19.920Z,35.52
2018-05-04T16:34:19.930Z,35.71
2018-05-04T16:36:16.418Z,35.81
2018-05-04T16:37:15.852Z,35.42
2018-05-04T16:39:12.317Z,35.42
2018-05-04T16:40:12.309Z,35.33
2018-05-04T16:42:07.771Z,35.42
2018-05-04T16:43:08.263Z,35.42
2018-05-04T16:45:06.714Z,35.93
2018-05-04T16:46:05.713Z,35.16
2018-05-04T16:48:06.214Z,35.33
2018-05-04T16:49:06.689Z,35.14
2018-05-04T16:51:02.183Z,34.84
2018-05-04T16:53:24.465Z,34.96
2018-05-04T16:56:00.458Z,34.96
2018-05-04T16:57:00.483Z,34.77
2018-05-04T16:58:56.911Z,34.67
2018-05-04T16:59:56.441Z,34.38
2018-05-04T17:01:52.409Z,33.91
2018-05-04T17:02:52.419Z,33.91
2018-05-04T17:04:50.385Z,33.25
2018-05-04T17:05:50.398Z,33.25
2018-05-04T17:07:46.863Z,33.15
2018-05-04T17:08:46.359Z,33.53
2018-05-04T17:10:42.842Z,33.05
2018-05-04T17:11:42.327Z,32.87
2018-05-04T17:13:38.318Z,32.03
2018-05-04T17:14:39.730Z,31.85
2018-05-04T17:16:34.313Z,30.49
2018-05-04T17:17:35.245Z,30.38
2018-05-04T17:19:32.725Z,31.91
2018-05-04T17:20:32.229Z,32.18
2018-05-04T17:22:28.715Z,32.56
2018-05-04T17:23:28.196Z,32.73
2018-05-04T17:25:26.318Z,33.69
2018-05-04T17:26:26.353Z,33.89
2018-05-04T17:28:25.781Z,33.50
2018-05-04T17:29:24.293Z,33.20
2018-05-04T17:31:20.276Z,33.97
2018-05-04T17:32:20.369Z,33.87
2018-05-04T17:34:16.736Z,34.25
2018-05-04T17:35:16.715Z,34.92
2018-05-04T17:37:13.174Z,35.22
2018-05-04T17:38:12.142Z,34.35
2018-05-04T17:40:11.670Z,34.25
2018-05-04T17:41:12.048Z,34.92
2018-05-04T17:43:07.226Z,34.92
2018-05-04T17:44:06.221Z,34.54
2018-05-04T17:46:02.699Z,34.83
2018-05-04T17:47:02.696Z,34.83
2018-05-04T17:48:58.632Z,35.79
2018-05-04T17:51:14.055Z,35.12
2018-05-04T17:52:14.056Z,35.20
2018-05-04T17:54:10.029Z,35.97
2018-05-04T17:55:10.086Z,35.87
2018-05-04T17:57:08.973Z,35.77
2018-05-04T17:58:08.006Z,36.25
2018-05-04T18:00:07.469Z,36.16
2018-05-04T18:01:06.973Z,35.39
2018-05-04T18:03:04.178Z,35.30
2018-05-04T18:04:04.117Z,35.49
2018-05-04T18:06:02.056Z,35.49
2018-05-04T18:07:02.075Z,35.97
2018-05-04T18:09:00.021Z,36.07
2018-05-04T18:09:59.999Z,36.07
2018-05-04T18:11:58.967Z,35.57
2018-05-04T18:12:59.987Z,36.43
2018-05-04T18:14:54.048Z,36.53
2018-05-04T18:15:54.048Z,38.26
2018-05-04T18:17:51.034Z,36.43
2018-05-04T18:18:50.510Z,36.91
2018-05-04T18:20:48.471Z,37.01
2018-05-04T18:21:48.463Z,37.49
2018-05-04T18:23:44.021Z,37.68
2018-05-04T18:24:44.415Z,37.76
2018-05-04T18:26:39.846Z,37.95
2018-05-04T18:27:39.864Z,37.85
2018-05-04T18:29:37.876Z,37.57
2018-05-04T18:30:38.361Z,38.81
2018-05-04T18:32:36.277Z,38.14
2018-05-04T18:33:36.268Z,38.62
2018-05-04T18:35:31.800Z,37.66
2018-05-04T18:36:31.805Z,37.95
2018-05-04T18:38:31.267Z,38.89
2018-05-04T18:39:29.924Z,38.14
2018-05-04T18:41:27.857Z,38.99
2018-05-04T18:42:28.366Z,38.51
2018-05-04T18:44:23.855Z,39.47
2018-05-04T18:45:23.806Z,39.76
2018-05-04T18:47:19.751Z,40.33
2018-05-04T18:49:35.714Z,38.99
2018-05-04T18:50:35.713Z,38.99
2018-05-04T18:52:31.646Z,40.52
2018-05-04T18:53:32.187Z,40.23
2018-05-04T18:55:28.624Z,39.28
2018-05-04T18:57:48.631Z,39.83
2018-05-04T18:58:48.598Z,40.12
2018-05-04T19:00:48.587Z,40.89
2018-05-04T19:01:49.066Z,40.79
2018-05-04T19:03:50.007Z,41.17
2018-05-04T19:04:50.008Z,41.66
2018-05-04T19:06:48.499Z,40.79
2018-05-04T19:07:47.149Z,41.46
2018-05-04T19:09:45.281Z,41.85
2018-05-04T19:10:46.094Z,42.13
2018-05-04T19:12:46.233Z,42.61
2018-05-04T19:13:46.219Z,42.04
2018-05-04T19:15:44.663Z,41.66
2018-05-04T19:16:44.204Z,41.94